sensor_id;sensor_type;location;lat;lon;timestamp;P1;durP1;ratioP1;P2;durP2;ratioP2
81242;SDS011;70716;50.074;14.496;2023-07-28T00:00:07;5.63;;;2.67;;
81242;SDS011;70716;50.074;14.496;2023-07-28T00:02:33;5.78;;;2.60;;
81242;SDS011;70716;50.074;14.496;2023-07-28T00:05:01;6.15;;;2.50;;
81242;SDS011;70716;50.074;14.496;2023-07-28T00:07:27;5.80;;;2.75;;
81242;SDS011;70716;50.074;14.496;2023-07-28T00:09:52;5.45;;;2.53;;
81242;SDS011;70716;50.074;14.496;2023-07-28T00:12:18;6.45;;;2.38;;
81242;SDS011;70716;50.074;14.496;2023-07-28T00:14:43;6.88;;;2.60;;
81242;SDS011;70716;50.074;14.496;2023-07-28T00:17:08;5.78;;;2.88;;
81242;SDS011;70716;50.074;14.496;2023-07-28T00:19:34;4.95;;;2.70;;
81242;SDS011;70716;50.074;14.496;2023-07-28T00:21:59;5.68;;;2.40;;
81242;SDS011;70716;50.074;14.496;2023-07-28T00:24:24;5.82;;;2.45;;
81242;SDS011;70716;50.074;14.496;2023-07-28T00:26:51;5.10;;;2.70;;
81242;SDS011;70716;50.074;14.496;2023-07-28T00:29:18;5.28;;;2.60;;
81242;SDS011;70716;50.074;14.496;2023-07-28T00:31:43;5.20;;;2.70;;
81242;SDS011;70716;50.074;14.496;2023-07-28T00:34:09;6.63;;;3.10;;
81242;SDS011;70716;50.074;14.496;2023-07-28T00:36:34;5.75;;;2.90;;
81242;SDS011;70716;50.074;14.496;2023-07-28T00:38:59;6.85;;;2.67;;
81242;SDS011;70716;50.074;14.496;2023-07-28T00:41:25;5.95;;;2.70;;
81242;SDS011;70716;50.074;14.496;2023-07-28T00:43:53;5.93;;;2.50;;
81242;SDS011;70716;50.074;14.496;2023-07-28T00:46:18;5.00;;;2.78;;
81242;SDS011;70716;50.074;14.496;2023-07-28T00:48:44;5.60;;;2.60;;
81242;SDS011;70716;50.074;14.496;2023-07-28T00:51:13;5.28;;;2.53;;
81242;SDS011;70716;50.074;14.496;2023-07-28T00:53:38;4.85;;;2.65;;
81242;SDS011;70716;50.074;14.496;2023-07-28T00:56:05;5.68;;;2.58;;
81242;SDS011;70716;50.074;14.496;2023-07-28T00:58:31;7.63;;;2.88;;
81242;SDS011;70716;50.074;14.496;2023-07-28T01:00:59;5.40;;;2.58;;
81242;SDS011;70716;50.074;14.496;2023-07-28T01:03:24;5.35;;;2.20;;
81242;SDS011;70716;50.074;14.496;2023-07-28T01:06:07;6.05;;;2.67;;
81242;SDS011;70716;50.074;14.496;2023-07-28T01:11:21;6.70;;;2.60;;
81242;SDS011;70716;50.074;14.496;2023-07-28T01:13:48;7.82;;;2.95;;
81242;SDS011;70716;50.074;14.496;2023-07-28T01:16:13;5.93;;;2.80;;
81242;SDS011;70716;50.074;14.496;2023-07-28T01:18:39;7.13;;;3.40;;
81242;SDS011;70716;50.074;14.496;2023-07-28T01:21:05;5.97;;;2.70;;
81242;SDS011;70716;50.074;14.496;2023-07-28T01:26:09;6.38;;;3.00;;
81242;SDS011;70716;50.074;14.496;2023-07-28T01:28:35;6.63;;;3.10;;
81242;SDS011;70716;50.074;14.496;2023-07-28T01:31:02;7.18;;;2.80;;
81242;SDS011;70716;50.074;14.496;2023-07-28T01:33:30;5.03;;;2.53;;
81242;SDS011;70716;50.074;14.496;2023-07-28T01:35:55;6.35;;;2.90;;
81242;SDS011;70716;50.074;14.496;2023-07-28T01:38:21;5.78;;;3.05;;
81242;SDS011;70716;50.074;14.496;2023-07-28T01:40:47;4.80;;;2.42;;
81242;SDS011;70716;50.074;14.496;2023-07-28T01:43:12;6.05;;;2.80;;
81242;SDS011;70716;50.074;14.496;2023-07-28T01:45:38;6.70;;;2.75;;
81242;SDS011;70716;50.074;14.496;2023-07-28T01:48:03;5.80;;;2.35;;
81242;SDS011;70716;50.074;14.496;2023-07-28T01:50:32;6.20;;;2.83;;
81242;SDS011;70716;50.074;14.496;2023-07-28T01:52:58;5.47;;;2.75;;
81242;SDS011;70716;50.074;14.496;2023-07-28T01:55:23;5.78;;;2.80;;
81242;SDS011;70716;50.074;14.496;2023-07-28T01:57:59;5.25;;;3.10;;
81242;SDS011;70716;50.074;14.496;2023-07-28T02:00:26;6.55;;;2.97;;
81242;SDS011;70716;50.074;14.496;2023-07-28T02:02:52;5.78;;;3.10;;
81242;SDS011;70716;50.074;14.496;2023-07-28T02:05:19;5.57;;;2.90;;
81242;SDS011;70716;50.074;14.496;2023-07-28T02:07:45;6.70;;;3.00;;
81242;SDS011;70716;50.074;14.496;2023-07-28T02:10:13;6.18;;;3.10;;
81242;SDS011;70716;50.074;14.496;2023-07-28T02:12:40;6.47;;;2.92;;
81242;SDS011;70716;50.074;14.496;2023-07-28T02:15:05;6.50;;;3.00;;
81242;SDS011;70716;50.074;14.496;2023-07-28T02:19:57;5.77;;;2.70;;
81242;SDS011;70716;50.074;14.496;2023-07-28T02:22:23;5.65;;;2.60;;
81242;SDS011;70716;50.074;14.496;2023-07-28T02:24:51;5.45;;;2.67;;
81242;SDS011;70716;50.074;14.496;2023-07-28T02:27:16;5.90;;;2.70;;
81242;SDS011;70716;50.074;14.496;2023-07-28T02:29:42;5.25;;;2.75;;
81242;SDS011;70716;50.074;14.496;2023-07-28T02:32:07;6.07;;;2.75;;
81242;SDS011;70716;50.074;14.496;2023-07-28T02:34:34;6.85;;;3.35;;
81242;SDS011;70716;50.074;14.496;2023-07-28T02:36:59;6.10;;;3.13;;
81242;SDS011;70716;50.074;14.496;2023-07-28T02:39:25;7.68;;;3.47;;
81242;SDS011;70716;50.074;14.496;2023-07-28T02:41:50;7.05;;;2.97;;
81242;SDS011;70716;50.074;14.496;2023-07-28T02:44:18;5.78;;;2.92;;
81242;SDS011;70716;50.074;14.496;2023-07-28T02:46:44;5.97;;;3.35;;
81242;SDS011;70716;50.074;14.496;2023-07-28T02:49:09;6.95;;;3.10;;
81242;SDS011;70716;50.074;14.496;2023-07-28T02:51:34;7.60;;;3.65;;
81242;SDS011;70716;50.074;14.496;2023-07-28T02:54:00;6.72;;;2.95;;
81242;SDS011;70716;50.074;14.496;2023-07-28T02:56:26;6.22;;;2.83;;
81242;SDS011;70716;50.074;14.496;2023-07-28T02:58:51;6.68;;;3.58;;
81242;SDS011;70716;50.074;14.496;2023-07-28T03:01:17;6.57;;;3.33;;
81242;SDS011;70716;50.074;14.496;2023-07-28T03:03:42;6.10;;;2.83;;
81242;SDS011;70716;50.074;14.496;2023-07-28T03:06:12;5.82;;;2.97;;
81242;SDS011;70716;50.074;14.496;2023-07-28T03:08:37;6.65;;;3.35;;
81242;SDS011;70716;50.074;14.496;2023-07-28T03:11:03;6.22;;;3.10;;
81242;SDS011;70716;50.074;14.496;2023-07-28T03:13:28;7.45;;;3.65;;
81242;SDS011;70716;50.074;14.496;2023-07-28T03:15:54;7.25;;;3.22;;
81242;SDS011;70716;50.074;14.496;2023-07-28T03:18:20;7.40;;;3.50;;
81242;SDS011;70716;50.074;14.496;2023-07-28T03:20:46;6.72;;;3.13;;
81242;SDS011;70716;50.074;14.496;2023-07-28T03:23:11;7.32;;;3.42;;
81242;SDS011;70716;50.074;14.496;2023-07-28T03:25:37;6.20;;;3.25;;
81242;SDS011;70716;50.074;14.496;2023-07-28T03:28:02;6.38;;;3.35;;
81242;SDS011;70716;50.074;14.496;2023-07-28T03:30:27;7.03;;;3.33;;
81242;SDS011;70716;50.074;14.496;2023-07-28T03:32:53;6.38;;;3.30;;
81242;SDS011;70716;50.074;14.496;2023-07-28T03:35:18;6.10;;;3.10;;
81242;SDS011;70716;50.074;14.496;2023-07-28T03:37:44;6.18;;;3.17;;
81242;SDS011;70716;50.074;14.496;2023-07-28T03:40:09;7.05;;;2.85;;
81242;SDS011;70716;50.074;14.496;2023-07-28T03:42:37;16.77;;;3.38;;
81242;SDS011;70716;50.074;14.496;2023-07-28T03:45:03;6.78;;;3.22;;
81242;SDS011;70716;50.074;14.496;2023-07-28T03:47:29;6.43;;;3.33;;
81242;SDS011;70716;50.074;14.496;2023-07-28T03:49:55;6.78;;;3.78;;
81242;SDS011;70716;50.074;14.496;2023-07-28T03:52:20;6.72;;;3.15;;
81242;SDS011;70716;50.074;14.496;2023-07-28T03:54:45;6.85;;;3.20;;
81242;SDS011;70716;50.074;14.496;2023-07-28T03:57:11;6.03;;;3.10;;
81242;SDS011;70716;50.074;14.496;2023-07-28T03:59:36;7.03;;;3.53;;
81242;SDS011;70716;50.074;14.496;2023-07-28T04:02:02;6.20;;;3.17;;
81242;SDS011;70716;50.074;14.496;2023-07-28T04:04:27;7.60;;;3.38;;
81242;SDS011;70716;50.074;14.496;2023-07-28T04:06:53;6.50;;;3.33;;
81242;SDS011;70716;50.074;14.496;2023-07-28T04:09:18;6.03;;;3.00;;
81242;SDS011;70716;50.074;14.496;2023-07-28T04:11:44;7.07;;;3.33;;
81242;SDS011;70716;50.074;14.496;2023-07-28T04:14:10;5.70;;;3.20;;
81242;SDS011;70716;50.074;14.496;2023-07-28T04:16:39;6.18;;;3.20;;
81242;SDS011;70716;50.074;14.496;2023-07-28T04:19:04;5.47;;;3.10;;
81242;SDS011;70716;50.074;14.496;2023-07-28T04:21:30;6.70;;;2.90;;
81242;SDS011;70716;50.074;14.496;2023-07-28T04:23:55;6.57;;;2.88;;
81242;SDS011;70716;50.074;14.496;2023-07-28T04:26:21;7.70;;;3.22;;
81242;SDS011;70716;50.074;14.496;2023-07-28T04:28:48;7.43;;;3.20;;
81242;SDS011;70716;50.074;14.496;2023-07-28T04:31:13;6.75;;;2.95;;
81242;SDS011;70716;50.074;14.496;2023-07-28T04:33:45;6.28;;;2.92;;
81242;SDS011;70716;50.074;14.496;2023-07-28T04:36:10;6.32;;;3.13;;
81242;SDS011;70716;50.074;14.496;2023-07-28T04:38:39;6.53;;;3.33;;
81242;SDS011;70716;50.074;14.496;2023-07-28T04:41:04;7.57;;;3.03;;
81242;SDS011;70716;50.074;14.496;2023-07-28T04:43:29;7.25;;;2.95;;
81242;SDS011;70716;50.074;14.496;2023-07-28T04:45:55;7.85;;;3.35;;
81242;SDS011;70716;50.074;14.496;2023-07-28T04:48:21;5.90;;;2.72;;
81242;SDS011;70716;50.074;14.496;2023-07-28T04:50:46;6.30;;;2.80;;
81242;SDS011;70716;50.074;14.496;2023-07-28T04:53:13;6.50;;;2.70;;
81242;SDS011;70716;50.074;14.496;2023-07-28T04:55:38;6.30;;;2.70;;
81242;SDS011;70716;50.074;14.496;2023-07-28T04:58:04;6.25;;;3.00;;
81242;SDS011;70716;50.074;14.496;2023-07-28T05:00:29;6.40;;;2.83;;
81242;SDS011;70716;50.074;14.496;2023-07-28T05:02:54;6.05;;;3.00;;
81242;SDS011;70716;50.074;14.496;2023-07-28T05:05:20;6.07;;;2.75;;
81242;SDS011;70716;50.074;14.496;2023-07-28T05:07:45;6.97;;;2.83;;
81242;SDS011;70716;50.074;14.496;2023-07-28T05:10:10;5.20;;;2.13;;
81242;SDS011;70716;50.074;14.496;2023-07-28T05:12:36;5.50;;;2.97;;
81242;SDS011;70716;50.074;14.496;2023-07-28T05:15:01;6.28;;;2.90;;
81242;SDS011;70716;50.074;14.496;2023-07-28T05:17:27;5.95;;;2.80;;
81242;SDS011;70716;50.074;14.496;2023-07-28T05:19:55;4.90;;;2.33;;
81242;SDS011;70716;50.074;14.496;2023-07-28T05:22:20;5.03;;;2.40;;
81242;SDS011;70716;50.074;14.496;2023-07-28T05:24:45;5.22;;;2.75;;
81242;SDS011;70716;50.074;14.496;2023-07-28T05:27:11;5.97;;;2.70;;
81242;SDS011;70716;50.074;14.496;2023-07-28T05:29:36;5.97;;;2.53;;
81242;SDS011;70716;50.074;14.496;2023-07-28T05:32:02;6.05;;;2.20;;
81242;SDS011;70716;50.074;14.496;2023-07-28T05:34:28;5.88;;;2.30;;
81242;SDS011;70716;50.074;14.496;2023-07-28T05:36:54;4.82;;;2.35;;
81242;SDS011;70716;50.074;14.496;2023-07-28T05:39:22;6.10;;;2.13;;
81242;SDS011;70716;50.074;14.496;2023-07-28T05:41:48;5.03;;;1.90;;
81242;SDS011;70716;50.074;14.496;2023-07-28T05:44:14;4.15;;;1.95;;
81242;SDS011;70716;50.074;14.496;2023-07-28T05:46:39;6.75;;;2.40;;
81242;SDS011;70716;50.074;14.496;2023-07-28T05:49:05;4.57;;;2.13;;
81242;SDS011;70716;50.074;14.496;2023-07-28T05:51:33;4.75;;;2.10;;
81242;SDS011;70716;50.074;14.496;2023-07-28T05:53:59;4.57;;;1.60;;
81242;SDS011;70716;50.074;14.496;2023-07-28T05:56:25;5.20;;;2.03;;
81242;SDS011;70716;50.074;14.496;2023-07-28T05:58:50;4.63;;;1.70;;
81242;SDS011;70716;50.074;14.496;2023-07-28T06:01:16;4.63;;;2.03;;
81242;SDS011;70716;50.074;14.496;2023-07-28T06:03:42;5.60;;;1.95;;
81242;SDS011;70716;50.074;14.496;2023-07-28T06:06:08;4.68;;;1.85;;
81242;SDS011;70716;50.074;14.496;2023-07-28T06:08:34;5.07;;;1.80;;
81242;SDS011;70716;50.074;14.496;2023-07-28T06:10:59;4.90;;;1.80;;
81242;SDS011;70716;50.074;14.496;2023-07-28T06:13:24;4.85;;;2.20;;
81242;SDS011;70716;50.074;14.496;2023-07-28T06:15:52;3.70;;;1.85;;
81242;SDS011;70716;50.074;14.496;2023-07-28T06:18:18;4.70;;;1.73;;
81242;SDS011;70716;50.074;14.496;2023-07-28T06:20:43;3.97;;;1.50;;
81242;SDS011;70716;50.074;14.496;2023-07-28T06:23:09;4.20;;;1.77;;
81242;SDS011;70716;50.074;14.496;2023-07-28T06:25:34;3.25;;;1.52;;
81242;SDS011;70716;50.074;14.496;2023-07-28T06:28:00;4.57;;;1.85;;
81242;SDS011;70716;50.074;14.496;2023-07-28T06:30:25;6.00;;;1.63;;
81242;SDS011;70716;50.074;14.496;2023-07-28T06:32:51;3.65;;;1.40;;
81242;SDS011;70716;50.074;14.496;2023-07-28T06:35:16;4.68;;;1.70;;
81242;SDS011;70716;50.074;14.496;2023-07-28T06:37:44;3.08;;;1.50;;
81242;SDS011;70716;50.074;14.496;2023-07-28T06:40:13;4.45;;;1.70;;
81242;SDS011;70716;50.074;14.496;2023-07-28T06:42:38;3.50;;;1.63;;
81242;SDS011;70716;50.074;14.496;2023-07-28T06:45:03;3.42;;;1.60;;
81242;SDS011;70716;50.074;14.496;2023-07-28T06:47:29;5.53;;;1.80;;
81242;SDS011;70716;50.074;14.496;2023-07-28T06:49:55;2.92;;;1.33;;
81242;SDS011;70716;50.074;14.496;2023-07-28T06:52:20;4.97;;;1.67;;
81242;SDS011;70716;50.074;14.496;2023-07-28T06:57:14;4.20;;;1.33;;
81242;SDS011;70716;50.074;14.496;2023-07-28T06:59:39;3.85;;;1.58;;
81242;SDS011;70716;50.074;14.496;2023-07-28T07:02:05;3.50;;;1.48;;
81242;SDS011;70716;50.074;14.496;2023-07-28T07:04:31;1.98;;;1.10;;
81242;SDS011;70716;50.074;14.496;2023-07-28T07:06:56;3.97;;;1.27;;
81242;SDS011;70716;50.074;14.496;2023-07-28T07:09:22;3.50;;;1.40;;
81242;SDS011;70716;50.074;14.496;2023-07-28T07:11:47;2.80;;;1.20;;
81242;SDS011;70716;50.074;14.496;2023-07-28T07:14:12;4.18;;;1.10;;
81242;SDS011;70716;50.074;14.496;2023-07-28T07:16:39;4.38;;;1.35;;
81242;SDS011;70716;50.074;14.496;2023-07-28T07:19:05;3.28;;;1.20;;
81242;SDS011;70716;50.074;14.496;2023-07-28T07:21:30;2.95;;;1.15;;
81242;SDS011;70716;50.074;14.496;2023-07-28T07:23:56;3.72;;;1.27;;
81242;SDS011;70716;50.074;14.496;2023-07-28T07:26:21;2.85;;;1.10;;
81242;SDS011;70716;50.074;14.496;2023-07-28T07:28:47;4.22;;;1.30;;
81242;SDS011;70716;50.074;14.496;2023-07-28T07:31:13;3.67;;;1.30;;
81242;SDS011;70716;50.074;14.496;2023-07-28T07:33:44;3.03;;;1.33;;
81242;SDS011;70716;50.074;14.496;2023-07-28T07:36:17;3.60;;;1.38;;
81242;SDS011;70716;50.074;14.496;2023-07-28T07:38:44;1.92;;;1.10;;
81242;SDS011;70716;50.074;14.496;2023-07-28T07:41:11;2.30;;;1.05;;
81242;SDS011;70716;50.074;14.496;2023-07-28T07:43:44;2.17;;;1.08;;
81242;SDS011;70716;50.074;14.496;2023-07-28T07:46:09;2.35;;;1.00;;
81242;SDS011;70716;50.074;14.496;2023-07-28T07:48:35;2.38;;;1.05;;
81242;SDS011;70716;50.074;14.496;2023-07-28T07:51:00;2.22;;;0.93;;
81242;SDS011;70716;50.074;14.496;2023-07-28T07:53:25;2.58;;;1.20;;
81242;SDS011;70716;50.074;14.496;2023-07-28T07:55:51;2.42;;;1.00;;
81242;SDS011;70716;50.074;14.496;2023-07-28T07:58:16;2.28;;;1.10;;
81242;SDS011;70716;50.074;14.496;2023-07-28T08:00:41;2.65;;;0.90;;
81242;SDS011;70716;50.074;14.496;2023-07-28T08:03:09;3.28;;;1.40;;
81242;SDS011;70716;50.074;14.496;2023-07-28T08:05:35;3.03;;;0.90;;
81242;SDS011;70716;50.074;14.496;2023-07-28T08:08:00;3.97;;;1.30;;
81242;SDS011;70716;50.074;14.496;2023-07-28T08:10:26;3.42;;;1.10;;
81242;SDS011;70716;50.074;14.496;2023-07-28T08:12:51;3.80;;;1.40;;
81242;SDS011;70716;50.074;14.496;2023-07-28T08:15:17;2.42;;;1.20;;
81242;SDS011;70716;50.074;14.496;2023-07-28T08:17:46;2.22;;;0.80;;
81242;SDS011;70716;50.074;14.496;2023-07-28T08:20:11;1.95;;;1.10;;
81242;SDS011;70716;50.074;14.496;2023-07-28T08:22:37;2.50;;;0.93;;
81242;SDS011;70716;50.074;14.496;2023-07-28T08:25:03;2.72;;;0.90;;
81242;SDS011;70716;50.074;14.496;2023-07-28T08:27:29;1.85;;;1.00;;
81242;SDS011;70716;50.074;14.496;2023-07-28T08:29:55;2.33;;;0.90;;
81242;SDS011;70716;50.074;14.496;2023-07-28T08:32:20;1.88;;;0.95;;
81242;SDS011;70716;50.074;14.496;2023-07-28T08:34:47;2.42;;;0.90;;
81242;SDS011;70716;50.074;14.496;2023-07-28T08:37:13;2.00;;;1.00;;
81242;SDS011;70716;50.074;14.496;2023-07-28T08:39:39;2.17;;;1.08;;
81242;SDS011;70716;50.074;14.496;2023-07-28T08:42:04;2.58;;;1.35;;
81242;SDS011;70716;50.074;14.496;2023-07-28T08:44:30;2.13;;;1.00;;
81242;SDS011;70716;50.074;14.496;2023-07-28T08:46:57;1.95;;;1.10;;
81242;SDS011;70716;50.074;14.496;2023-07-28T08:49:23;2.78;;;1.10;;
81242;SDS011;70716;50.074;14.496;2023-07-28T08:51:49;2.75;;;1.30;;
81242;SDS011;70716;50.074;14.496;2023-07-28T08:54:15;2.20;;;1.08;;
81242;SDS011;70716;50.074;14.496;2023-07-28T08:56:44;2.13;;;1.00;;
81242;SDS011;70716;50.074;14.496;2023-07-28T08:59:09;5.00;;;1.25;;
81242;SDS011;70716;50.074;14.496;2023-07-28T09:01:39;2.45;;;1.20;;
81242;SDS011;70716;50.074;14.496;2023-07-28T09:04:10;3.45;;;1.30;;
81242;SDS011;70716;50.074;14.496;2023-07-28T09:06:39;2.95;;;1.20;;
81242;SDS011;70716;50.074;14.496;2023-07-28T09:09:07;3.55;;;1.30;;
81242;SDS011;70716;50.074;14.496;2023-07-28T09:11:49;4.40;;;1.40;;
81242;SDS011;70716;50.074;14.496;2023-07-28T09:16:48;2.95;;;1.20;;
81242;SDS011;70716;50.074;14.496;2023-07-28T09:19:17;2.22;;;1.20;;
81242;SDS011;70716;50.074;14.496;2023-07-28T09:21:47;2.75;;;1.27;;
81242;SDS011;70716;50.074;14.496;2023-07-28T09:24:28;3.00;;;1.27;;
81242;SDS011;70716;50.074;14.496;2023-07-28T09:26:57;4.38;;;1.35;;
81242;SDS011;70716;50.074;14.496;2023-07-28T09:29:23;3.50;;;1.40;;
81242;SDS011;70716;50.074;14.496;2023-07-28T09:31:49;3.30;;;1.27;;
81242;SDS011;70716;50.074;14.496;2023-07-28T09:34:25;2.63;;;1.38;;
81242;SDS011;70716;50.074;14.496;2023-07-28T09:36:58;3.70;;;1.42;;
81242;SDS011;70716;50.074;14.496;2023-07-28T09:39:25;2.30;;;1.55;;
81242;SDS011;70716;50.074;14.496;2023-07-28T09:41:53;3.35;;;1.40;;
81242;SDS011;70716;50.074;14.496;2023-07-28T09:44:22;2.53;;;1.20;;
81242;SDS011;70716;50.074;14.496;2023-07-28T09:46:51;3.28;;;1.33;;
81242;SDS011;70716;50.074;14.496;2023-07-28T09:49:26;2.78;;;1.42;;
81242;SDS011;70716;50.074;14.496;2023-07-28T09:51:53;3.17;;;1.52;;
81242;SDS011;70716;50.074;14.496;2023-07-28T09:54:29;4.05;;;1.90;;
81242;SDS011;70716;50.074;14.496;2023-07-28T09:56:58;5.03;;;2.38;;
81242;SDS011;70716;50.074;14.496;2023-07-28T09:59:28;3.25;;;1.67;;
81242;SDS011;70716;50.074;14.496;2023-07-28T10:01:58;4.45;;;1.60;;
81242;SDS011;70716;50.074;14.496;2023-07-28T10:04:25;4.53;;;1.83;;
81242;SDS011;70716;50.074;14.496;2023-07-28T10:06:53;4.45;;;1.67;;
81242;SDS011;70716;50.074;14.496;2023-07-28T10:09:23;4.03;;;1.70;;
81242;SDS011;70716;50.074;14.496;2023-07-28T10:11:50;4.68;;;2.00;;
81242;SDS011;70716;50.074;14.496;2023-07-28T10:14:25;2.65;;;1.45;;
81242;SDS011;70716;50.074;14.496;2023-07-28T10:16:59;4.90;;;2.03;;
81242;SDS011;70716;50.074;14.496;2023-07-28T10:19:26;4.80;;;2.05;;
81242;SDS011;70716;50.074;14.496;2023-07-28T10:21:59;2.78;;;1.42;;
81242;SDS011;70716;50.074;14.496;2023-07-28T10:27:37;4.60;;;2.10;;
81242;SDS011;70716;50.074;14.496;2023-07-28T10:30:10;3.67;;;1.63;;
81242;SDS011;70716;50.074;14.496;2023-07-28T10:32:38;4.15;;;1.80;;
81242;SDS011;70716;50.074;14.496;2023-07-28T10:37:45;4.53;;;1.98;;
81242;SDS011;70716;50.074;14.496;2023-07-28T10:40:23;3.95;;;1.55;;
81242;SDS011;70716;50.074;14.496;2023-07-28T10:42:52;4.07;;;1.77;;
81242;SDS011;70716;50.074;14.496;2023-07-28T10:47:45;3.58;;;1.60;;
81242;SDS011;70716;50.074;14.496;2023-07-28T10:50:13;3.38;;;1.48;;
81242;SDS011;70716;50.074;14.496;2023-07-28T10:52:40;2.90;;;1.20;;
81242;SDS011;70716;50.074;14.496;2023-07-28T10:55:13;3.20;;;1.20;;
81242;SDS011;70716;50.074;14.496;2023-07-28T10:57:43;3.38;;;1.38;;
81242;SDS011;70716;50.074;14.496;2023-07-28T11:00:14;3.08;;;1.50;;
81242;SDS011;70716;50.074;14.496;2023-07-28T11:02:42;3.70;;;1.30;;
81242;SDS011;70716;50.074;14.496;2023-07-28T11:05:24;2.63;;;1.20;;
81242;SDS011;70716;50.074;14.496;2023-07-28T11:07:53;2.20;;;1.08;;
81242;SDS011;70716;50.074;14.496;2023-07-28T11:10:20;4.72;;;1.27;;
81242;SDS011;70716;50.074;14.496;2023-07-28T11:12:47;1.95;;;1.00;;
81242;SDS011;70716;50.074;14.496;2023-07-28T11:15:15;1.58;;;0.90;;
81242;SDS011;70716;50.074;14.496;2023-07-28T11:20:19;2.50;;;1.10;;
81242;SDS011;70716;50.074;14.496;2023-07-28T11:22:52;2.53;;;1.10;;
81242;SDS011;70716;50.074;14.496;2023-07-28T11:25:21;3.65;;;1.13;;
81242;SDS011;70716;50.074;14.496;2023-07-28T11:27:49;1.60;;;1.00;;
81242;SDS011;70716;50.074;14.496;2023-07-28T11:30:15;2.08;;;1.08;;
81242;SDS011;70716;50.074;14.496;2023-07-28T11:32:42;3.28;;;1.17;;
81242;SDS011;70716;50.074;14.496;2023-07-28T11:35:10;3.22;;;1.25;;
81242;SDS011;70716;50.074;14.496;2023-07-28T11:37:42;1.23;;;0.80;;
81242;SDS011;70716;50.074;14.496;2023-07-28T11:40:13;4.03;;;1.30;;
81242;SDS011;70716;50.074;14.496;2023-07-28T11:42:44;3.13;;;1.30;;
81242;SDS011;70716;50.074;14.496;2023-07-28T11:45:12;2.30;;;1.30;;
81242;SDS011;70716;50.074;14.496;2023-07-28T11:47:39;5.05;;;1.60;;
81242;SDS011;70716;50.074;14.496;2023-07-28T11:50:05;2.85;;;1.48;;
81242;SDS011;70716;50.074;14.496;2023-07-28T11:52:35;4.38;;;1.35;;
81242;SDS011;70716;50.074;14.496;2023-07-28T11:55:02;2.17;;;1.10;;
81242;SDS011;70716;50.074;14.496;2023-07-28T11:57:30;3.45;;;1.13;;
81242;SDS011;70716;50.074;14.496;2023-07-28T11:59:59;2.05;;;1.10;;
81242;SDS011;70716;50.074;14.496;2023-07-28T12:02:25;2.28;;;1.20;;
81242;SDS011;70716;50.074;14.496;2023-07-28T12:04:52;2.47;;;1.00;;
81242;SDS011;70716;50.074;14.496;2023-07-28T12:07:19;1.40;;;0.85;;
81242;SDS011;70716;50.074;14.496;2023-07-28T12:09:52;1.98;;;1.02;;
81242;SDS011;70716;50.074;14.496;2023-07-28T12:12:22;1.58;;;1.00;;
81242;SDS011;70716;50.074;14.496;2023-07-28T12:14:49;1.20;;;1.00;;
81242;SDS011;70716;50.074;14.496;2023-07-28T12:17:23;1.95;;;0.93;;
81242;SDS011;70716;50.074;14.496;2023-07-28T12:19:58;2.47;;;1.23;;
81242;SDS011;70716;50.074;14.496;2023-07-28T12:22:26;4.25;;;1.73;;
81242;SDS011;70716;50.074;14.496;2023-07-28T12:27:20;4.20;;;1.35;;
81242;SDS011;70716;50.074;14.496;2023-07-28T12:29:50;2.97;;;1.27;;
81242;SDS011;70716;50.074;14.496;2023-07-28T12:32:16;1.10;;;0.70;;
81242;SDS011;70716;50.074;14.496;2023-07-28T12:34:41;11.80;;;3.22;;
81242;SDS011;70716;50.074;14.496;2023-07-28T12:39:36;8.97;;;3.33;;
81242;SDS011;70716;50.074;14.496;2023-07-28T12:42:08;5.93;;;1.60;;
81242;SDS011;70716;50.074;14.496;2023-07-28T12:44:38;4.60;;;1.10;;
81242;SDS011;70716;50.074;14.496;2023-07-28T12:47:05;4.20;;;1.10;;
81242;SDS011;70716;50.074;14.496;2023-07-28T12:49:34;1.70;;;0.95;;
81242;SDS011;70716;50.074;14.496;2023-07-28T12:52:03;1.23;;;0.73;;
81242;SDS011;70716;50.074;14.496;2023-07-28T12:54:34;3.47;;;0.95;;
81242;SDS011;70716;50.074;14.496;2023-07-28T12:57:00;2.75;;;1.10;;
81242;SDS011;70716;50.074;14.496;2023-07-28T12:59:26;2.28;;;0.80;;
81242;SDS011;70716;50.074;14.496;2023-07-28T13:01:52;2.25;;;0.95;;
81242;SDS011;70716;50.074;14.496;2023-07-28T13:04:18;1.20;;;0.68;;
81242;SDS011;70716;50.074;14.496;2023-07-28T13:06:43;2.22;;;0.80;;
81242;SDS011;70716;50.074;14.496;2023-07-28T13:09:09;1.85;;;0.90;;
81242;SDS011;70716;50.074;14.496;2023-07-28T13:11:37;1.05;;;0.70;;
81242;SDS011;70716;50.074;14.496;2023-07-28T13:14:03;1.30;;;0.70;;
81242;SDS011;70716;50.074;14.496;2023-07-28T13:16:30;2.25;;;0.70;;
81242;SDS011;70716;50.074;14.496;2023-07-28T13:18:56;0.90;;;0.70;;
81242;SDS011;70716;50.074;14.496;2023-07-28T13:21:22;0.73;;;0.63;;
81242;SDS011;70716;50.074;14.496;2023-07-28T13:23:47;1.27;;;0.70;;
81242;SDS011;70716;50.074;14.496;2023-07-28T13:26:13;2.50;;;0.70;;
81242;SDS011;70716;50.074;14.496;2023-07-28T13:28:38;2.97;;;0.73;;
81242;SDS011;70716;50.074;14.496;2023-07-28T13:31:08;1.83;;;0.65;;
81242;SDS011;70716;50.074;14.496;2023-07-28T13:33:33;2.22;;;0.90;;
81242;SDS011;70716;50.074;14.496;2023-07-28T13:38:29;2.03;;;0.90;;
81242;SDS011;70716;50.074;14.496;2023-07-28T13:40:55;2.00;;;0.85;;
81242;SDS011;70716;50.074;14.496;2023-07-28T13:43:20;1.20;;;0.80;;
81242;SDS011;70716;50.074;14.496;2023-07-28T13:45:46;2.13;;;0.90;;
81242;SDS011;70716;50.074;14.496;2023-07-28T13:48:11;1.77;;;0.90;;
81242;SDS011;70716;50.074;14.496;2023-07-28T13:50:36;1.25;;;0.80;;
81242;SDS011;70716;50.074;14.496;2023-07-28T13:53:02;2.65;;;0.63;;
81242;SDS011;70716;50.074;14.496;2023-07-28T13:55:33;1.35;;;0.70;;
81242;SDS011;70716;50.074;14.496;2023-07-28T13:57:59;1.48;;;0.82;;
81242;SDS011;70716;50.074;14.496;2023-07-28T14:00:24;1.23;;;0.68;;
81242;SDS011;70716;50.074;14.496;2023-07-28T14:02:50;2.55;;;0.82;;
81242;SDS011;70716;50.074;14.496;2023-07-28T14:05:16;1.17;;;0.73;;
81242;SDS011;70716;50.074;14.496;2023-07-28T14:07:42;1.40;;;0.80;;
81242;SDS011;70716;50.074;14.496;2023-07-28T14:10:07;1.77;;;0.90;;
81242;SDS011;70716;50.074;14.496;2023-07-28T14:12:33;1.75;;;1.10;;
81242;SDS011;70716;50.074;14.496;2023-07-28T14:14:58;1.15;;;0.85;;
81242;SDS011;70716;50.074;14.496;2023-07-28T14:17:24;4.88;;;1.00;;
81242;SDS011;70716;50.074;14.496;2023-07-28T14:19:49;1.73;;;0.90;;
81242;SDS011;70716;50.074;14.496;2023-07-28T14:22:15;1.05;;;0.70;;
81242;SDS011;70716;50.074;14.496;2023-07-28T14:24:40;1.73;;;0.98;;
81242;SDS011;70716;50.074;14.496;2023-07-28T14:27:06;2.13;;;0.90;;
81242;SDS011;70716;50.074;14.496;2023-07-28T14:29:31;1.08;;;0.70;;
81242;SDS011;70716;50.074;14.496;2023-07-28T14:31:56;1.48;;;0.93;;
81242;SDS011;70716;50.074;14.496;2023-07-28T14:34:22;1.17;;;0.68;;
81242;SDS011;70716;50.074;14.496;2023-07-28T14:36:47;1.63;;;1.00;;
81242;SDS011;70716;50.074;14.496;2023-07-28T14:39:13;1.20;;;0.80;;
81242;SDS011;70716;50.074;14.496;2023-07-28T14:41:38;1.42;;;0.88;;
81242;SDS011;70716;50.074;14.496;2023-07-28T14:44:03;2.83;;;1.05;;
81242;SDS011;70716;50.074;14.496;2023-07-28T14:46:29;2.05;;;0.90;;
81242;SDS011;70716;50.074;14.496;2023-07-28T14:48:54;5.72;;;1.23;;
81242;SDS011;70716;50.074;14.496;2023-07-28T14:51:21;2.10;;;0.90;;
81242;SDS011;70716;50.074;14.496;2023-07-28T14:53:49;1.83;;;0.73;;
81242;SDS011;70716;50.074;14.496;2023-07-28T14:56:15;1.58;;;0.90;;
81242;SDS011;70716;50.074;14.496;2023-07-28T14:58:44;2.75;;;1.10;;
81242;SDS011;70716;50.074;14.496;2023-07-28T15:01:10;2.67;;;1.00;;